createdAt,value
2022-09-12T00:00:46.476Z,0
2022-09-12T00:01:49.678Z,0
2022-09-12T00:02:52.872Z,0
2022-09-12T00:03:56.404Z,0
2022-09-12T00:04:59.471Z,0
2022-09-12T00:06:01.943Z,0
2022-09-12T00:07:05.676Z,0
2022-09-12T00:08:08.243Z,0
2022-09-12T00:09:11.387Z,0
2022-09-12T00:10:14.262Z,0
2022-09-12T00:11:17.407Z,0
2022-09-12T00:12:20.576Z,0
2022-09-12T00:13:23.943Z,0
2022-09-12T00:14:26.106Z,0
2022-09-12T00:15:29.551Z,0
2022-09-12T00:16:32.468Z,0
2022-09-12T00:17:36.290Z,0
2022-09-12T00:18:39.313Z,0
2022-09-12T00:19:42.182Z,0
2022-09-12T00:20:45.801Z,0
2022-09-12T00:21:49.049Z,0
2022-09-12T00:22:52.675Z,0
2022-09-12T00:23:55.933Z,0
2022-09-12T00:24:59.470Z,0
2022-09-12T00:26:02.814Z,0
2022-09-12T00:27:06.032Z,0
2022-09-12T00:28:09.384Z,0
2022-09-12T00:29:12.547Z,0
2022-09-12T00:30:15.066Z,0
2022-09-12T00:31:17.334Z,0
2022-09-12T00:32:20.205Z,0
2022-09-12T00:33:22.363Z,0
2022-09-12T00:34:25.449Z,0
2022-09-12T00:35:28.440Z,0
2022-09-12T00:36:31.046Z,0
2022-09-12T00:37:33.671Z,0
2022-09-12T00:38:36.579Z,0
2022-09-12T00:39:40.520Z,0
2022-09-12T00:40:44.025Z,0
2022-09-12T00:41:46.896Z,0
2022-09-12T00:42:49.406Z,0
2022-09-12T00:43:52.190Z,0
2022-09-12T00:44:55.069Z,0
2022-09-12T00:45:57.884Z,0
2022-09-12T00:47:01.506Z,0
2022-09-12T00:48:04.677Z,0
2022-09-12T00:49:06.637Z,0
2022-09-12T00:50:09.817Z,0
2022-09-12T00:51:13.241Z,0
2022-09-12T00:52:16.949Z,0
2022-09-12T00:53:20.406Z,0
2022-09-12T00:54:23.863Z,0
2022-09-12T00:55:27.005Z,0
2022-09-12T00:56:30.093Z,0
2022-09-12T00:57:32.969Z,0
2022-09-12T00:58:36.677Z,0
2022-09-12T00:59:39.560Z,0
2022-09-12T01:00:42.376Z,0
2022-09-12T01:01:46.654Z,0
2022-09-12T01:02:50.744Z,0
2022-09-12T01:03:53.259Z,0
2022-09-12T01:04:56.419Z,0
2022-09-12T01:05:59.098Z,0
2022-09-12T01:07:02.453Z,0
2022-09-12T01:08:05.424Z,0
2022-09-12T01:09:08.461Z,0
2022-09-12T01:10:12.183Z,0
2022-09-12T01:11:15.231Z,0
2022-09-12T01:12:18.119Z,0
2022-09-12T01:13:21.335Z,0
2022-09-12T01:14:23.938Z,0
2022-09-12T01:15:26.929Z,0
2022-09-12T01:16:29.751Z,0
2022-09-12T01:17:33.540Z,0
2022-09-12T01:18:36.523Z,0
2022-09-12T01:19:39.616Z,0
2022-09-12T01:20:42.965Z,0
2022-09-12T01:21:45.668Z,0
2022-09-12T01:22:49.128Z,0
2022-09-12T01:23:51.842Z,0
2022-09-12T01:24:54.403Z,0
2022-09-12T01:25:57.861Z,0
2022-09-12T01:27:01.011Z,0
2022-09-12T01:28:04.199Z,0
2022-09-12T01:29:07.581Z,0
2022-09-12T01:30:10.394Z,0
2022-09-12T01:31:12.993Z,0
2022-09-12T01:32:16.562Z,0
2022-09-12T01:33:20.484Z,0
2022-09-12T01:34:23.361Z,0
2022-09-12T01:35:26.881Z,0
2022-09-12T01:36:29.780Z,0
2022-09-12T01:37:32.295Z,0
2022-09-12T01:38:35.505Z,0
2022-09-12T01:39:38.378Z,0
2022-09-12T01:40:42.174Z,0
2022-09-12T01:41:46.655Z,0
2022-09-12T01:42:49.798Z,0
2022-09-12T01:43:52.812Z,0
2022-09-12T01:44:56.542Z,0
2022-09-12T01:45:59.917Z,0
2022-09-12T01:47:03.475Z,0
2022-09-12T01:48:06.654Z,0
2022-09-12T01:49:09.262Z,0
2022-09-12T01:50:12.815Z,0
2022-09-12T01:51:15.679Z,0
2022-09-12T01:52:18.480Z,0
2022-09-12T01:53:21.626Z,0
2022-09-12T01:54:24.621Z,0
2022-09-12T01:55:27.494Z,0
2022-09-12T01:56:31.224Z,0
2022-09-12T01:57:34.683Z,0
2022-09-12T01:58:38.116Z,0
2022-09-12T01:59:41.342Z,0
2022-09-12T02:00:44.133Z,0
2022-09-12T02:01:47.609Z,0
2022-09-12T02:02:51.321Z,0
2022-09-12T02:03:55.049Z,0
2022-09-12T02:04:57.411Z,0
2022-09-12T02:06:00.479Z,0
2022-09-12T02:07:03.623Z,0
2022-09-12T02:08:07.146Z,0
2022-09-12T02:09:10.026Z,0
2022-09-12T02:10:12.740Z,0
2022-09-12T02:11:16.190Z,0
2022-09-12T02:12:19.271Z,0
2022-09-12T02:13:22.464Z,0
2022-09-12T02:14:25.684Z,0
2022-09-12T02:15:29.152Z,0
2022-09-12T02:16:32.094Z,0
2022-09-12T02:17:35.872Z,0
2022-09-12T02:18:38.932Z,0
2022-09-12T02:19:42.342Z,0
2022-09-12T02:20:48.190Z,0
2022-09-12T02:21:52.336Z,0
2022-09-12T02:22:55.233Z,0
2022-09-12T02:23:58.655Z,0
2022-09-12T02:25:02.016Z,0
2022-09-12T02:26:04.880Z,0
2022-09-12T02:27:08.221Z,0
2022-09-12T02:28:11.962Z,0
2022-09-12T02:29:15.780Z,0
2022-09-12T02:30:18.544Z,0
2022-09-12T02:31:21.947Z,0
2022-09-12T02:32:25.395Z,0
2022-09-12T02:33:28.739Z,0
2022-09-12T02:34:31.265Z,0
2022-09-12T02:35:34.135Z,0
2022-09-12T02:36:36.561Z,0
2022-09-12T02:37:39.642Z,0
2022-09-12T02:38:43.022Z,0
2022-09-12T02:39:46.458Z,0
2022-09-12T02:40:49.618Z,0
2022-09-12T02:41:52.791Z,0
2022-09-12T02:42:55.950Z,0
2022-09-12T02:43:58.700Z,0
2022-09-12T02:45:01.963Z,0
2022-09-12T02:46:05.439Z,0
2022-09-12T02:47:08.445Z,0
2022-09-12T02:48:13.384Z,0
2022-09-12T02:49:16.070Z,0
2022-09-12T02:50:18.918Z,0
2022-09-12T02:51:23.720Z,0
2022-09-12T02:52:26.819Z,0
2022-09-12T02:53:29.001Z,0
2022-09-12T02:54:32.339Z,0
2022-09-12T02:55:35.291Z,0
2022-09-12T02:56:38.350Z,0
2022-09-12T02:57:41.024Z,0
2022-09-12T02:58:43.618Z,0
2022-09-12T02:59:47.469Z,0
2022-09-12T03:00:51.329Z,0
2022-09-12T03:01:55.516Z,0
2022-09-12T03:02:59.415Z,0
2022-09-12T03:04:02.133Z,0
2022-09-12T03:05:05.262Z,0
2022-09-12T03:06:08.689Z,0
2022-09-12T03:07:11.281Z,0
2022-09-12T03:08:14.143Z,0
2022-09-12T03:09:16.655Z,0
2022-09-12T03:10:19.734Z,0
2022-09-12T03:11:23.158Z,0
2022-09-12T03:12:26.679Z,0
2022-09-12T03:13:29.552Z,0
2022-09-12T03:14:32.211Z,0
2022-09-12T03:15:35.577Z,0
2022-09-12T03:16:39.335Z,0
2022-09-12T03:17:42.914Z,0
2022-09-12T03:18:46.094Z,0
2022-09-12T03:19:49.956Z,0
2022-09-12T03:20:52.555Z,0
2022-09-12T03:21:55.416Z,0
2022-09-12T03:22:58.896Z,0
2022-09-12T03:24:01.681Z,0
2022-09-12T03:25:04.755Z,0
2022-09-12T03:26:07.194Z,0
2022-09-12T03:27:10.252Z,0
2022-09-12T03:28:13.193Z,0
2022-09-12T03:29:16.274Z,0
2022-09-12T03:30:18.874Z,0
2022-09-12T03:31:22.267Z,0
2022-09-12T03:32:25.996Z,0
2022-09-12T03:33:29.311Z,0
2022-09-12T03:34:32.482Z,0
2022-09-12T03:35:35.002Z,0
2022-09-12T03:36:37.795Z,0
2022-09-12T03:37:40.306Z,0
2022-09-12T03:38:43.117Z,0
2022-09-12T03:39:46.156Z,0
2022-09-12T03:40:54.160Z,0
2022-09-12T03:41:58.150Z,0
2022-09-12T03:43:01.037Z,0
2022-09-12T03:44:03.910Z,0
2022-09-12T03:45:06.904Z,0
2022-09-12T03:46:10.000Z,0
2022-09-12T03:47:13.423Z,0
2022-09-12T03:48:16.676Z,0
2022-09-12T03:49:20.069Z,0
2022-09-12T03:50:23.163Z,0
2022-09-12T03:51:25.865Z,0
2022-09-12T03:52:29.311Z,0
2022-09-12T03:53:32.451Z,0
2022-09-12T03:54:35.983Z,0
2022-09-12T03:55:39.325Z,0
2022-09-12T03:56:42.394Z,0
2022-09-12T03:57:45.734Z,0
2022-09-12T03:58:48.794Z,0
2022-09-12T03:59:53.235Z,0
2022-09-12T04:00:55.842Z,0
2022-09-12T04:01:59.561Z,0
2022-09-12T04:03:02.967Z,0
2022-09-12T04:04:05.960Z,0
2022-09-12T04:05:09.293Z,0
2022-09-12T04:06:13.032Z,0
2022-09-12T04:07:15.651Z,4
2022-09-12T04:08:18.323Z,4
2022-09-12T04:09:21.483Z,0
2022-09-12T04:10:24.273Z,0
2022-09-12T04:11:27.770Z,4
2022-09-12T04:12:30.480Z,4
2022-09-12T04:13:33.343Z,4
2022-09-12T04:14:36.496Z,4
2022-09-12T04:15:39.911Z,8
2022-09-12T04:16:43.181Z,8
2022-09-12T04:17:45.673Z,12
2022-09-12T04:18:49.169Z,16
2022-09-12T04:19:52.909Z,16
2022-09-12T04:20:56.158Z,20
2022-09-12T04:21:59.506Z,20
2022-09-12T04:23:02.374Z,28
2022-09-12T04:24:04.806Z,32
2022-09-12T04:25:08.139Z,40
2022-09-12T04:26:11.066Z,44
2022-09-12T04:27:13.572Z,56
2022-09-12T04:28:16.895Z,60
2022-09-12T04:29:19.866Z,72
2022-09-12T04:30:23.136Z,84
2022-09-12T04:31:26.314Z,96
2022-09-12T04:32:28.545Z,112
2022-09-12T04:33:31.049Z,124
2022-09-12T04:34:34.155Z,144
2022-09-12T04:35:37.343Z,160
2022-09-12T04:36:40.822Z,184
2022-09-12T04:37:44.634Z,204
2022-09-12T04:38:48.111Z,224
2022-09-12T04:39:51.527Z,248
2022-09-12T04:40:54.211Z,272
2022-09-12T04:41:58.213Z,300
2022-09-12T04:43:00.532Z,328
2022-09-12T04:44:03.870Z,360
2022-09-12T04:45:06.770Z,392
2022-09-12T04:46:09.316Z,428
2022-09-12T04:47:13.129Z,464
2022-09-12T04:48:15.664Z,504
2022-09-12T04:49:18.375Z,540
2022-09-12T04:50:22.121Z,580
2022-09-12T04:51:25.561Z,624
2022-09-12T04:52:29.110Z,668
2022-09-12T04:53:31.891Z,712
2022-09-12T04:54:34.501Z,756
2022-09-12T04:55:37.560Z,804
2022-09-12T04:56:40.428Z,856
2022-09-12T04:57:43.285Z,904
2022-09-12T04:58:46.459Z,956
2022-09-12T04:59:49.884Z,1008
2022-09-12T05:00:53.388Z,1060
2022-09-12T05:01:57.622Z,1120
2022-09-12T05:03:01.335Z,1168
2022-09-12T05:04:04.412Z,1216
2022-09-12T05:05:08.132Z,1276
2022-09-12T05:06:11.397Z,1328
2022-09-12T05:07:15.411Z,1388
2022-09-12T05:08:18.849Z,1444
2022-09-12T05:09:22.079Z,1500
2022-09-12T05:10:25.698Z,1556
2022-09-12T05:11:41.488Z,1604
2022-09-12T05:13:11.213Z,1692
2022-09-12T05:14:14.370Z,1748
2022-09-12T05:15:17.796Z,1804
2022-09-12T05:16:20.976Z,1860
2022-09-12T05:17:24.451Z,1920
2022-09-12T05:18:27.871Z,1972
2022-09-12T05:19:31.314Z,2028
2022-09-12T05:20:34.300Z,2080
2022-09-12T05:21:37.486Z,2132
2022-09-12T05:22:41.238Z,2196
2022-09-12T05:23:44.184Z,2244
2022-09-12T05:24:50.386Z,2296
2022-09-12T05:25:53.723Z,2356
2022-09-12T05:26:56.297Z,2412
2022-09-12T05:27:59.341Z,2472
2022-09-12T05:29:02.203Z,2532
2022-09-12T05:30:05.379Z,2592
2022-09-12T05:31:08.615Z,2652
2022-09-12T05:32:11.973Z,2704
2022-09-12T05:33:14.837Z,2760
2022-09-12T05:34:17.070Z,2820
2022-09-12T05:35:20.794Z,2884
2022-09-12T05:36:24.017Z,2944
2022-09-12T05:37:28.053Z,3000
2022-09-12T05:38:32.140Z,3056
2022-09-12T05:39:35.360Z,3120
2022-09-12T05:40:39.100Z,3184
2022-09-12T05:41:41.824Z,3248
2022-09-12T05:42:45.092Z,3316
2022-09-12T05:43:47.829Z,3372
2022-09-12T05:44:50.939Z,3436
2022-09-12T05:45:53.963Z,3496
2022-09-12T05:46:57.552Z,3552
2022-09-12T05:48:00.340Z,3604
2022-09-12T05:49:03.132Z,3660
2022-09-12T05:50:06.208Z,3712
2022-09-12T05:51:09.011Z,3756
2022-09-12T05:52:11.879Z,3796
2022-09-12T05:53:15.707Z,3844
2022-09-12T05:54:18.890Z,3888
2022-09-12T05:55:22.243Z,3928
2022-09-12T05:56:25.699Z,3972
2022-09-12T05:57:29.048Z,4004
2022-09-12T05:58:32.024Z,4040
2022-09-12T05:59:35.133Z,4092
2022-09-12T06:00:38.001Z,4132
2022-09-12T06:01:41.131Z,4172
2022-09-12T06:02:44.784Z,4220
2022-09-12T06:03:47.851Z,4260
2022-09-12T06:04:50.562Z,4292
2022-09-12T06:05:53.351Z,4324
2022-09-12T06:06:56.431Z,4384
2022-09-12T06:07:59.401Z,4424
2022-09-12T06:09:02.866Z,4472
2022-09-12T06:10:06.607Z,4508
2022-09-12T06:11:09.816Z,4528
2022-09-12T06:12:13.183Z,4548
2022-09-12T06:13:16.444Z,4572
2022-09-12T06:14:19.904Z,4580
2022-09-12T06:15:23.324Z,4464
2022-09-12T06:16:26.715Z,4684
2022-09-12T06:17:30.685Z,4716
2022-09-12T06:18:33.284Z,4680
2022-09-12T06:19:36.730Z,4780
2022-09-12T06:20:39.795Z,4804
2022-09-12T06:21:42.577Z,4848
2022-09-12T06:22:44.871Z,4892
2022-09-12T06:23:47.457Z,4912
2022-09-12T06:24:52.784Z,4944
2022-09-12T06:26:01.351Z,4900
2022-09-12T06:27:04.195Z,4868
2022-09-12T06:28:07.156Z,4876
2022-09-12T06:29:09.951Z,4892
2022-09-12T06:30:12.949Z,5004
2022-09-12T06:31:16.477Z,4980
2022-09-12T06:32:19.625Z,4968
2022-09-12T06:33:22.974Z,5016
2022-09-12T06:34:26.068Z,5052
2022-09-12T06:35:29.298Z,5084
2022-09-12T06:36:31.191Z,5116
2022-09-12T06:37:35.203Z,5164
2022-09-12T06:38:38.651Z,5272
2022-09-12T06:39:41.754Z,5384
2022-09-12T06:40:44.596Z,5496
2022-09-12T06:41:48.053Z,5560
2022-09-12T06:42:51.635Z,5596
2022-09-12T06:43:55.375Z,5636
2022-09-12T06:44:57.685Z,5652
2022-09-12T06:46:01.228Z,5676
2022-09-12T06:47:05.018Z,5684
2022-09-12T06:48:08.162Z,5716
2022-09-12T06:49:10.675Z,5732
2022-09-12T06:50:13.542Z,5784
2022-09-12T06:51:16.800Z,5816
2022-09-12T06:52:20.279Z,5832
2022-09-12T06:53:23.153Z,5860
2022-09-12T06:54:25.393Z,5896
2022-09-12T06:55:27.967Z,5912
2022-09-12T06:56:31.076Z,5964
2022-09-12T06:57:34.599Z,6040
2022-09-12T06:58:37.559Z,6072
2022-09-12T06:59:40.899Z,6152
2022-09-12T07:00:43.872Z,6248
2022-09-12T07:01:46.997Z,6340
2022-09-12T07:02:50.726Z,6404
2022-09-12T07:03:53.808Z,6432
2022-09-12T07:04:56.974Z,6452
2022-09-12T07:06:00.337Z,6496
2022-09-12T07:07:02.850Z,6580
2022-09-12T07:08:06.076Z,6656
2022-09-12T07:09:09.228Z,6732
2022-09-12T07:10:12.411Z,6796
2022-09-12T07:11:17.546Z,6880
2022-09-12T07:12:21.021Z,6944
2022-09-12T07:13:25.113Z,7008
2022-09-12T07:14:28.178Z,7048
2022-09-12T07:15:31.323Z,7116
2022-09-12T07:16:35.049Z,7200
2022-09-12T07:17:38.847Z,7256
2022-09-12T07:18:42.267Z,7316
2022-09-12T07:19:44.794Z,7352
2022-09-12T07:20:48.335Z,7440
2022-09-12T07:21:55.299Z,7560
2022-09-12T07:23:01.616Z,7664
2022-09-12T07:24:04.405Z,7764
2022-09-12T07:25:07.192Z,7780
2022-09-12T07:26:10.628Z,7808
2022-09-12T07:27:13.735Z,7872
2022-09-12T07:28:16.379Z,8116
2022-09-12T07:29:37.321Z,8172
2022-09-12T07:30:41.547Z,8232
2022-09-12T07:31:44.550Z,8360
2022-09-12T07:32:47.333Z,8520
2022-09-12T07:33:54.275Z,8568
2022-09-12T07:34:58.172Z,8564
2022-09-12T07:36:01.282Z,8696
2022-09-12T07:37:03.843Z,8892
2022-09-12T07:38:06.914Z,9028
2022-09-12T07:39:10.018Z,9080
2022-09-12T07:40:12.885Z,9232
2022-09-12T07:41:16.213Z,9384
2022-09-12T07:42:19.404Z,9564
2022-09-12T07:43:22.895Z,9928
2022-09-12T07:44:26.926Z,14204
2022-09-12T07:45:30.643Z,47168
2022-09-12T07:46:33.865Z,72384
2022-09-12T07:47:36.440Z,70368
2022-09-12T07:48:39.958Z,69920
2022-09-12T07:49:42.474Z,73792
2022-09-12T07:50:45.427Z,74432
2022-09-12T07:51:48.846Z,72256
2022-09-12T07:52:51.636Z,71488
2022-09-12T07:53:54.704Z,73600
2022-09-12T07:54:57.623Z,66880
2022-09-12T07:56:01.452Z,71520
2022-09-12T07:57:04.932Z,69120
2022-09-12T07:58:07.759Z,68832
2022-09-12T07:59:11.158Z,71008
2022-09-12T08:00:14.895Z,72320
2022-09-12T08:01:18.563Z,73472
2022-09-12T08:02:22.246Z,76768
2022-09-12T08:03:25.814Z,76896
2022-09-12T08:04:29.548Z,71744
2022-09-12T08:05:32.717Z,76832
2022-09-12T08:06:36.110Z,75136
2022-09-12T08:07:39.428Z,79840
2022-09-12T08:08:42.583Z,72608
2022-09-12T08:09:45.936Z,67552
2022-09-12T08:10:49.174Z,69728
2022-09-12T08:11:51.992Z,71328
2022-09-12T08:12:54.293Z,71104
2022-09-12T08:13:57.929Z,70848
2022-09-12T08:15:01.205Z,73216
2022-09-12T08:16:04.716Z,67008
2022-09-12T08:17:08.763Z,73472
2022-09-12T08:18:12.604Z,79808
2022-09-12T08:19:15.775Z,82432
2022-09-12T08:20:19.577Z,83872
2022-09-12T08:21:30.019Z,85888
2022-09-12T08:22:32.975Z,81472
2022-09-12T08:23:36.390Z,83616
2022-09-12T08:24:40.145Z,86528
2022-09-12T08:25:42.643Z,86080
2022-09-12T08:26:46.068Z,87488
2022-09-12T08:27:48.585Z,85888
2022-09-12T08:28:52.016Z,84160
2022-09-12T08:29:54.605Z,87936
2022-09-12T08:30:58.646Z,84768
2022-09-12T08:32:03.109Z,76064
2022-09-12T08:33:06.912Z,79456
2022-09-12T08:34:10.607Z,81632
2022-09-12T08:35:13.662Z,77824
2022-09-12T08:36:16.815Z,64640
2022-09-12T08:37:20.253Z,68768
2022-09-12T08:38:23.448Z,77088
2022-09-12T08:39:26.516Z,81568
2022-09-12T08:40:29.240Z,77536
2022-09-12T08:41:32.652Z,91584
2022-09-12T08:42:35.579Z,93856
2022-09-12T08:43:37.904Z,20704
2022-09-12T08:44:40.695Z,38336
2022-09-12T08:45:43.824Z,33152
2022-09-12T08:46:47.257Z,96416
2022-09-12T08:47:51.335Z,100000
2022-09-12T08:48:54.684Z,98688
2022-09-12T08:49:58.465Z,103712
2022-09-12T08:51:02.295Z,106688
2022-09-12T08:52:04.902Z,107072
2022-09-12T08:53:07.865Z,99360
2022-09-12T08:54:10.963Z,99136
2022-09-12T08:55:14.063Z,80448
2022-09-12T08:56:17.778Z,100128
2022-09-12T08:57:20.866Z,98336
2022-09-12T08:58:24.366Z,104640
2022-09-12T08:59:28.389Z,108704
2022-09-12T09:00:31.344Z,93696
2022-09-12T09:01:34.819Z,97216
2022-09-12T09:02:38.894Z,94176
2022-09-12T09:03:42.762Z,23520
2022-09-12T09:04:45.992Z,87872
2022-09-12T09:05:49.845Z,106976
2022-09-12T09:06:52.708Z,65792
2022-09-12T09:07:56.441Z,30336
2022-09-12T09:08:58.875Z,114464
2022-09-12T09:10:02.259Z,101600
2022-09-12T09:11:05.503Z,105152
2022-09-12T09:12:07.740Z,102208
2022-09-12T09:13:11.094Z,90368
2022-09-12T09:14:13.975Z,90592
2022-09-12T09:15:16.869Z,93280
2022-09-12T09:16:19.597Z,101184
2022-09-12T09:17:22.917Z,95744
2022-09-12T09:18:26.350Z,38240
2022-09-12T09:19:29.823Z,26240
2022-09-12T09:20:33.099Z,104576
2022-09-12T09:21:36.338Z,98560
2022-09-12T09:22:39.411Z,110528
2022-09-12T09:23:42.720Z,104544
2022-09-12T09:24:46.613Z,114560
2022-09-12T09:25:49.969Z,114880
2022-09-12T09:26:53.310Z,110944
2022-09-12T09:27:56.734Z,110144
2022-09-12T09:29:00.179Z,106592
2022-09-12T09:30:03.613Z,108224
2022-09-12T09:31:06.318Z,113664
2022-09-12T09:32:10.218Z,107744
2022-09-12T09:33:13.106Z,109024
2022-09-12T09:34:16.262Z,106432
2022-09-12T09:35:20.037Z,106016
2022-09-12T09:36:22.996Z,105472
2022-09-12T09:37:26.242Z,94880
2022-09-12T09:38:29.106Z,102400
2022-09-12T09:39:32.526Z,101504
2022-09-12T09:40:35.694Z,97760
2022-09-12T09:41:39.138Z,94336
2022-09-12T09:42:42.529Z,95296
2022-09-12T09:43:46.252Z,95712
2022-09-12T09:44:49.246Z,97856
2022-09-12T09:45:52.505Z,101312
2022-09-12T09:46:55.695Z,104288
2022-09-12T09:47:58.822Z,107168
2022-09-12T09:49:02.239Z,109856
2022-09-12T09:50:05.231Z,96096
2022-09-12T09:51:08.968Z,38240
2022-09-12T09:52:11.412Z,64640
2022-09-12T09:53:14.574Z,93184
2022-09-12T09:54:18.651Z,104640
2022-09-12T09:55:21.373Z,100832
2022-09-12T09:56:25.455Z,104832
2022-09-12T09:57:28.893Z,107104
2022-09-12T09:58:32.242Z,103872
2022-09-12T09:59:35.464Z,107200
2022-09-12T10:00:38.792Z,111328
2022-09-12T10:01:41.708Z,116000
2022-09-12T10:02:45.029Z,118464
2022-09-12T10:03:47.955Z,119040
2022-09-12T10:04:51.085Z,117568
2022-09-12T10:05:54.728Z,104160
2022-09-12T10:06:58.206Z,106528
2022-09-12T10:08:01.271Z,112384
2022-09-12T10:09:05.062Z,40736
2022-09-12T10:10:08.758Z,115232
2022-09-12T10:11:12.204Z,98304
2022-09-12T10:12:15.628Z,103968
2022-09-12T10:13:18.779Z,96224
2022-09-12T10:14:22.050Z,34912
2022-09-12T10:15:24.999Z,40384
2022-09-12T10:16:28.086Z,85024
2022-09-12T10:17:34.069Z,78688
2022-09-12T10:18:37.049Z,84992
2022-09-12T10:19:39.009Z,58144
2022-09-12T10:20:41.801Z,58944
2022-09-12T10:21:45.563Z,95968
2022-09-12T10:22:49.311Z,104320
2022-09-12T10:23:52.386Z,99392
2022-09-12T10:24:56.213Z,98976
2022-09-12T10:25:58.727Z,115712
2022-09-12T10:27:01.729Z,117888
2022-09-12T10:28:04.805Z,119936
2022-09-12T10:29:07.687Z,117792
2022-09-12T10:30:10.303Z,114528
2022-09-12T10:31:13.552Z,119136
2022-09-12T10:32:17.479Z,113920
2022-09-12T10:33:21.208Z,112480
2022-09-12T10:34:24.646Z,110624
2022-09-12T10:35:27.494Z,112256
2022-09-12T10:36:30.705Z,110816
2022-09-12T10:37:34.010Z,106752
2022-09-12T10:38:37.755Z,98688
2022-09-12T10:39:40.909Z,100576
2022-09-12T10:40:44.420Z,96800
2022-09-12T10:41:47.566Z,100352
2022-09-12T10:42:50.643Z,97216
2022-09-12T10:43:53.446Z,102400
2022-09-12T10:44:56.687Z,99328
2022-09-12T10:46:00.173Z,101120
2022-09-12T10:47:03.508Z,98240
2022-09-12T10:48:07.851Z,89280
2022-09-12T10:49:10.986Z,86240
2022-09-12T10:50:22.281Z,87072
2022-09-12T10:51:26.187Z,85088
2022-09-12T10:52:29.714Z,86560
2022-09-12T10:53:34.602Z,87296
2022-09-12T10:54:39.548Z,84448
2022-09-12T10:55:42.348Z,85792
2022-09-12T10:56:45.543Z,82400
2022-09-12T10:57:48.668Z,81792
2022-09-12T10:58:51.756Z,69312
2022-09-12T10:59:54.345Z,64416
2022-09-12T11:00:58.122Z,67296
2022-09-12T11:03:19.985Z,68992
2022-09-12T11:04:23.713Z,74752
2022-09-12T11:05:27.079Z,78176
2022-09-12T11:06:30.604Z,80864
2022-09-12T11:07:33.201Z,80320
2022-09-12T11:08:36.306Z,81248
2022-09-12T11:09:39.666Z,79328
2022-09-12T11:10:44.488Z,78528
2022-09-12T11:11:47.460Z,79616
2022-09-12T11:12:50.945Z,83168
2022-09-12T11:13:53.928Z,81792
2022-09-12T11:14:57.198Z,72032
2022-09-12T11:16:00.062Z,85440
2022-09-12T11:17:03.186Z,86112
2022-09-12T11:18:06.059Z,84736
2022-09-12T11:19:08.485Z,82400
2022-09-12T11:20:11.985Z,76192
2022-09-12T11:21:15.661Z,72896
2022-09-12T11:22:19.166Z,72704
2022-09-12T11:23:22.319Z,35392
2022-09-12T11:24:25.434Z,34048
2022-09-12T11:25:28.861Z,38656
2022-09-12T11:26:32.329Z,34816
2022-09-12T11:27:35.733Z,52480
2022-09-12T11:28:39.237Z,42048
2022-09-12T11:29:49.316Z,53472
2022-09-12T11:30:52.255Z,52320
2022-09-12T11:31:55.723Z,65664
2022-09-12T11:32:58.786Z,67840
2022-09-12T11:34:01.962Z,71072
2022-09-12T11:35:04.810Z,69952
2022-09-12T11:36:08.181Z,72640
2022-09-12T11:37:13.291Z,71424
2022-09-12T11:38:21.063Z,41984
2022-09-12T11:39:24.683Z,36864
2022-09-12T11:40:27.780Z,61984
2022-09-12T11:41:31.477Z,62688
2022-09-12T11:42:34.385Z,62304
2022-09-12T11:43:38.166Z,56128
2022-09-12T11:44:41.367Z,43040
2022-09-12T11:45:43.903Z,60032
2022-09-12T11:46:51.165Z,62592
2022-09-12T11:47:55.665Z,64960
2022-09-12T11:48:58.298Z,67456
2022-09-12T11:50:00.737Z,64416
2022-09-12T11:51:03.331Z,64672
2022-09-12T11:52:07.063Z,67104
2022-09-12T11:53:10.859Z,70048
2022-09-12T11:54:13.652Z,68096
2022-09-12T11:55:17.012Z,39712
2022-09-12T11:56:20.395Z,64480
2022-09-12T11:57:23.747Z,36352
2022-09-12T11:58:27.488Z,33216
2022-09-12T11:59:31.200Z,33952
2022-09-12T12:00:34.630Z,42656
2022-09-12T12:01:42.141Z,70080
2022-09-12T12:02:51.688Z,64896
2022-09-12T12:03:54.828Z,67392
2022-09-12T12:04:57.745Z,65760
2022-09-12T12:06:00.641Z,66816
2022-09-12T12:07:03.238Z,68544
2022-09-12T12:08:06.306Z,49440
2022-09-12T12:09:09.997Z,79488
2022-09-12T12:10:12.950Z,80288
2022-09-12T12:11:15.550Z,79680
2022-09-12T12:12:19.531Z,76896
2022-09-12T12:13:22.762Z,77216
2022-09-12T12:14:26.788Z,74912
2022-09-12T12:15:29.488Z,72192
2022-09-12T12:16:33.419Z,47936
2022-09-12T12:17:36.833Z,62400
2022-09-12T12:18:40.195Z,60384
2022-09-12T12:19:43.521Z,58240
2022-09-12T12:20:46.973Z,58592
2022-09-12T12:21:50.596Z,56352
2022-09-12T12:22:52.933Z,59776
2022-09-12T12:23:56.653Z,58944
2022-09-12T12:24:59.535Z,48736
2022-09-12T12:26:01.974Z,57120
2022-09-12T12:27:05.403Z,56064
2022-09-12T12:28:08.882Z,52256
2022-09-12T12:29:12.311Z,50080
2022-09-12T12:30:16.056Z,53504
2022-09-12T12:31:19.470Z,56800
2022-09-12T12:32:23.292Z,59328
2022-09-12T12:33:26.170Z,61664
2022-09-12T12:34:29.249Z,61312
2022-09-12T12:35:32.443Z,62016
2022-09-12T12:36:35.876Z,58752
2022-09-12T12:37:39.053Z,63008
2022-09-12T12:38:42.383Z,66208
2022-09-12T12:39:45.427Z,64128
2022-09-12T12:40:49.553Z,58912
2022-09-12T12:41:52.332Z,54208
2022-09-12T12:42:55.212Z,51968
2022-09-12T12:43:58.511Z,47968
2022-09-12T12:45:01.366Z,41728
2022-09-12T12:46:05.193Z,35456
2022-09-12T12:47:08.739Z,29248
2022-09-12T12:48:12.018Z,29472
2022-09-12T12:49:15.093Z,31808
2022-09-12T12:50:17.886Z,33248
2022-09-12T12:51:21.225Z,32000
2022-09-12T12:52:24.113Z,30016
2022-09-12T12:53:27.635Z,33248
2022-09-12T12:54:30.144Z,29792
2022-09-12T12:55:33.352Z,30112
2022-09-12T12:56:35.876Z,29120
2022-09-12T12:57:38.495Z,29440
2022-09-12T12:58:41.576Z,28768
2022-09-12T12:59:45.076Z,29248
2022-09-12T13:00:47.523Z,29440
2022-09-12T13:01:54.886Z,32160
2022-09-12T13:02:58.701Z,35776
2022-09-12T13:04:01.985Z,35168
2022-09-12T13:05:05.056Z,31168
2022-09-12T13:06:08.204Z,34944
2022-09-12T13:07:11.160Z,31168
2022-09-12T13:08:14.235Z,32000
2022-09-12T13:09:16.782Z,32160
2022-09-12T13:10:19.777Z,30208
2022-09-12T13:11:22.489Z,30048
2022-09-12T13:12:25.638Z,30240
2022-09-12T13:13:28.431Z,33120
2022-09-12T13:14:32.155Z,33696
2022-09-12T13:15:35.434Z,33088
2022-09-12T13:16:39.064Z,29344
2022-09-12T13:17:43.090Z,28224
2022-09-12T13:18:46.631Z,27520
2022-09-12T13:20:00.727Z,26080
2022-09-12T13:21:32.360Z,25088
2022-09-12T13:22:35.894Z,24672
2022-09-12T13:23:39.082Z,24640
2022-09-12T13:24:41.664Z,25760
2022-09-12T13:25:44.170Z,24832
2022-09-12T13:26:47.333Z,23776
2022-09-12T13:27:50.800Z,23136
2022-09-12T13:28:54.250Z,22624
2022-09-12T13:29:58.381Z,22368
2022-09-12T13:31:02.103Z,21824
2022-09-12T13:32:05.060Z,21856
2022-09-12T13:33:07.985Z,21600
2022-09-12T13:34:11.134Z,21792
2022-09-12T13:35:14.359Z,21824
2022-09-12T13:36:17.431Z,21984
2022-09-12T13:37:20.161Z,22208
2022-09-12T13:38:23.152Z,22880
2022-09-12T13:39:26.546Z,22720
2022-09-12T13:40:29.425Z,21312
2022-09-12T13:41:32.504Z,20864
2022-09-12T13:42:36.227Z,20544
2022-09-12T13:43:39.739Z,20320
2022-09-12T13:44:43.094Z,19872
2022-09-12T13:45:45.636Z,19488
2022-09-12T13:46:49.153Z,19072
2022-09-12T13:47:56.570Z,18720
2022-09-12T13:49:02.022Z,18624
2022-09-12T13:50:06.078Z,18400
2022-09-12T13:51:09.282Z,17860
2022-09-12T13:52:13.265Z,17260
2022-09-12T13:53:16.888Z,16568
2022-09-12T13:54:24.408Z,16088
2022-09-12T13:55:27.341Z,15792
2022-09-12T13:56:30.795Z,15840
2022-09-12T13:57:34.222Z,15988
2022-09-12T13:58:37.392Z,16052
2022-09-12T13:59:40.491Z,16036
2022-09-12T14:00:44.047Z,15888
2022-09-12T14:01:46.898Z,15696
2022-09-12T14:02:50.302Z,15676
2022-09-12T14:03:58.102Z,15900
2022-09-12T14:05:02.730Z,16408
2022-09-12T14:06:06.777Z,16832
2022-09-12T14:07:10.346Z,20128
2022-09-12T14:08:12.854Z,22528
2022-09-12T14:09:15.945Z,25568
2022-09-12T14:10:26.628Z,25344
2022-09-12T14:11:29.732Z,24800
2022-09-12T14:12:32.342Z,23904
2022-09-12T14:13:35.166Z,28000
2022-09-12T14:14:39.186Z,30784
2022-09-12T14:15:42.240Z,36640
2022-09-12T14:16:45.660Z,38560
2022-09-12T14:17:49.391Z,31552
2022-09-12T14:18:52.924Z,33664